Time;durP1;ratioP1;P1;durP2;ratioP2;P2;SDS_P1;SDS_P2;PMS_P1;PMS_P2;Temp;Humidity;BMP_temperature;BMP_pressure;BME280_temperature;BME280_humidity;BME280_pressure;Samples;Min_cycle;Max_cycle;Signal;HPM_P1;HPM_P2
2023/03/07 00:01:44;;;;;;;0.90;0.70;;;6.00;99.90;;;;;;4983972;28;20624;-81
2023/03/07 00:04:12;;;;;;;1.23;0.70;;;6.00;99.90;;;;;;5003636;28;20054;-81
2023/03/07 00:06:39;;;;;;;1.38;0.85;;;6.00;99.90;;;;;;5004324;28;20057;-81
2023/03/07 00:09:06;;;;;;;1.00;0.90;;;6.00;99.90;;;;;;4999261;28;20081;-81
2023/03/07 00:11:33;;;;;;;1.10;0.90;;;6.00;99.90;;;;;;5003605;28;20115;-80
2023/03/07 00:14:00;;;;;;;1.45;1.20;;;6.00;99.90;;;;;;5008391;28;20081;-80
2023/03/07 00:16:27;;;;;;;1.20;0.90;;;6.00;99.90;;;;;;5008255;28;20077;-80
2023/03/07 00:18:54;;;;;;;0.93;0.80;;;6.00;99.90;;;;;;4978386;28;20057;-81
2023/03/07 00:21:21;;;;;;;1.30;0.95;;;6.00;99.90;;;;;;5001450;28;20073;-81
2023/03/07 00:23:50;;;;;;;1.55;1.08;;;6.00;99.90;;;;;;5000876;28;20052;-80
2023/03/07 00:26:19;;;;;;;1.80;1.20;;;6.00;99.90;;;;;;4982785;28;20529;-80
2023/03/07 00:28:46;;;;;;;2.17;1.25;;;5.90;99.90;;;;;;4997035;28;20149;-80
2023/03/07 00:31:13;;;;;;;2.25;0.95;;;6.00;99.90;;;;;;4992205;28;20082;-81
2023/03/07 00:33:40;;;;;;;1.77;1.20;;;5.90;99.90;;;;;;5003106;28;20382;-79
2023/03/07 00:36:11;;;;;;;1.05;0.80;;;6.00;99.90;;;;;;4999122;28;20396;-80
2023/03/07 00:38:37;;;;;;;1.30;1.15;;;6.00;99.90;;;;;;4976746;28;20454;-80
2023/03/07 00:41:12;;;;;;;1.27;0.90;;;6.00;99.90;;;;;;5001213;28;20160;-80
2023/03/07 00:43:39;;;;;;;2.47;0.98;;;6.00;99.90;;;;;;5003230;28;20060;-80
2023/03/07 00:46:06;;;;;;;1.40;0.98;;;6.10;99.90;;;;;;4998054;28;20487;-80
2023/03/07 00:48:34;;;;;;;1.23;0.80;;;6.10;99.90;;;;;;4980430;28;20145;-80
2023/03/07 00:51:01;;;;;;;1.00;0.90;;;6.10;99.90;;;;;;4985055;28;20068;-80
2023/03/07 00:53:29;;;;;;;1.20;0.93;;;6.10;99.90;;;;;;4997058;28;20065;-80
2023/03/07 00:56:04;;;;;;;1.90;0.95;;;6.10;99.90;;;;;;5009760;28;20141;-79
2023/03/07 00:58:33;;;;;;;1.13;0.88;;;6.10;99.90;;;;;;4979519;28;20050;-80
2023/03/07 01:01:01;;;;;;;1.27;0.85;;;6.20;99.90;;;;;;5003859;28;20076;-80
2023/03/07 01:03:28;;;;;;;1.35;1.00;;;6.20;99.90;;;;;;4989523;28;20083;-80
2023/03/07 01:05:54;;;;;;;1.88;1.00;;;6.10;99.90;;;;;;4994753;28;20469;-80
2023/03/07 01:08:21;;;;;;;1.27;0.93;;;6.20;99.90;;;;;;4999812;28;20409;-80
2023/03/07 01:10:49;;;;;;;1.08;0.90;;;6.20;99.90;;;;;;4990553;28;20244;-79
2023/03/07 01:13:17;;;;;;;1.70;0.88;;;6.20;99.90;;;;;;4982567;28;20133;-79
2023/03/07 01:15:43;;;;;;;1.02;0.70;;;6.20;99.90;;;;;;4983305;28;20058;-79
2023/03/07 01:18:10;;;;;;;0.93;0.80;;;6.20;99.90;;;;;;4977980;28;20464;-79
2023/03/07 01:20:38;;;;;;;1.15;0.80;;;6.20;99.90;;;;;;4998234;28;20049;-80
2023/03/07 01:23:04;;;;;;;1.05;0.50;;;6.20;99.90;;;;;;4999980;28;20304;-79
2023/03/07 01:25:35;;;;;;;1.75;0.80;;;6.20;99.90;;;;;;4983605;28;20086;-79
2023/03/07 01:28:02;;;;;;;0.73;0.60;;;6.20;99.90;;;;;;4997580;28;20080;-80
2023/03/07 01:30:29;;;;;;;1.05;0.90;;;6.30;99.90;;;;;;5002041;28;20184;-79
2023/03/07 01:32:57;;;;;;;0.85;0.65;;;6.30;99.90;;;;;;4999974;28;20144;-80
2023/03/07 01:35:24;;;;;;;0.85;0.60;;;6.30;99.90;;;;;;4985948;28;20058;-80
2023/03/07 01:37:51;;;;;;;1.02;0.60;;;6.30;99.90;;;;;;4980096;28;20064;-80
2023/03/07 01:40:19;;;;;;;0.90;0.70;;;6.30;99.90;;;;;;5000784;28;20056;-79
2023/03/07 01:42:46;;;;;;;0.75;0.75;;;6.30;99.90;;;;;;4997222;28;20062;-79
2023/03/07 01:45:13;;;;;;;1.48;0.75;;;6.30;99.90;;;;;;4990325;28;20694;-79
2023/03/07 01:47:40;;;;;;;0.80;0.80;;;6.30;99.90;;;;;;5003489;28;20195;-79
2023/03/07 01:50:10;;;;;;;0.60;0.60;;;6.30;99.90;;;;;;4987063;28;20632;-78
2023/03/07 01:52:41;;;;;;;1.20;0.70;;;6.30;99.90;;;;;;4988902;28;20139;-80
2023/03/07 01:55:20;;;;;;;0.95;0.60;;;6.20;99.90;;;;;;5031019;28;20114;-80
2023/03/07 01:57:47;;;;;;;1.73;1.10;;;6.20;99.90;;;;;;4984713;28;20058;-80
2023/03/07 02:00:24;;;;;;;1.17;0.90;;;6.20;99.90;;;;;;5005778;28;20063;-80
2023/03/07 02:03:06;;;;;;;1.50;1.10;;;6.10;99.90;;;;;;4982667;28;20057;-79
2023/03/07 02:05:36;;;;;;;1.48;0.98;;;6.00;99.90;;;;;;5006058;28;20506;-79
2023/03/07 02:08:03;;;;;;;1.33;0.98;;;5.80;99.90;;;;;;4984549;28;20135;-79
2023/03/07 02:10:30;;;;;;;2.25;0.93;;;5.70;99.90;;;;;;4989383;28;20516;-79
2023/03/07 02:12:57;;;;;;;3.45;1.20;;;5.50;99.90;;;;;;5007052;28;20110;-79
2023/03/07 02:15:24;;;;;;;1.90;1.35;;;5.40;99.90;;;;;;4990589;28;20137;-79
2023/03/07 02:17:50;;;;;;;1.60;0.90;;;5.30;99.90;;;;;;5004377;28;20167;-79
2023/03/07 02:20:45;;;;;;;1.55;1.05;;;5.20;99.90;;;;;;5003303;28;20472;-78
2023/03/07 02:23:20;;;;;;;2.25;1.27;;;5.00;99.90;;;;;;4999329;28;20072;-79
2023/03/07 02:26:21;;;;;;;1.98;1.15;;;5.00;99.90;;;;;;4985326;28;20085;-80
2023/03/07 02:28:48;;;;;;;1.58;1.10;;;4.90;99.90;;;;;;5007886;28;20045;-79
2023/03/07 02:31:15;;;;;;;2.40;1.48;;;4.80;99.90;;;;;;5005700;28;20156;-79
2023/03/07 02:33:41;;;;;;;2.67;1.20;;;4.80;99.90;;;;;;5001811;28;20149;-79
2023/03/07 02:36:13;;;;;;;3.38;1.38;;;4.80;99.90;;;;;;4985905;28;20051;-79
2023/03/07 02:38:41;;;;;;;2.85;1.40;;;4.80;99.90;;;;;;4985802;28;20062;-79
2023/03/07 02:41:10;;;;;;;2.28;1.30;;;4.80;99.90;;;;;;4987286;28;20059;-79
2023/03/07 02:43:37;;;;;;;1.88;1.08;;;4.80;99.90;;;;;;4989778;28;20057;-79
2023/03/07 02:46:04;;;;;;;3.03;1.20;;;4.80;99.90;;;;;;4973690;28;20631;-80
2023/03/07 02:48:31;;;;;;;2.03;1.30;;;4.80;99.90;;;;;;4983740;28;20077;-79
2023/03/07 02:50:58;;;;;;;1.90;1.00;;;4.70;99.90;;;;;;4972188;28;20053;-79
2023/03/07 02:53:25;;;;;;;1.45;1.02;;;4.70;99.90;;;;;;4988532;28;20058;-79
2023/03/07 02:55:52;;;;;;;1.65;1.20;;;4.80;99.90;;;;;;4989953;28;20046;-79
2023/03/07 02:58:19;;;;;;;2.33;1.40;;;4.80;99.90;;;;;;4986900;28;20811;-79
2023/03/07 03:00:46;;;;;;;2.25;1.42;;;4.70;99.90;;;;;;5006177;28;20103;-79
2023/03/07 03:03:13;;;;;;;1.40;1.13;;;4.70;99.90;;;;;;5008321;28;20081;-79
2023/03/07 03:05:40;;;;;;;2.53;1.30;;;4.70;99.90;;;;;;5004249;28;20046;-80
2023/03/07 03:08:07;;;;;;;1.13;1.00;;;4.60;99.90;;;;;;5005280;28;20525;-80
2023/03/07 03:10:33;;;;;;;1.50;1.20;;;4.60;99.90;;;;;;4985903;28;20064;-79
2023/03/07 03:13:00;;;;;;;2.40;1.30;;;4.40;99.90;;;;;;4990451;28;20099;-80
2023/03/07 03:15:27;;;;;;;1.73;1.08;;;4.30;99.90;;;;;;4989933;28;20518;-80
2023/03/07 03:17:54;;;;;;;2.47;1.40;;;4.30;99.90;;;;;;4986445;28;20056;-79
2023/03/07 03:20:22;;;;;;;2.08;1.50;;;4.20;99.90;;;;;;5000062;28;20160;-79
2023/03/07 03:22:50;;;;;;;1.30;0.80;;;4.00;99.90;;;;;;4986286;28;20046;-80
2023/03/07 03:25:17;;;;;;;1.35;1.05;;;4.00;99.90;;;;;;5026511;28;20049;-80
2023/03/07 03:27:44;;;;;;;0.90;0.80;;;3.90;99.90;;;;;;4989625;28;20045;-79
2023/03/07 03:30:11;;;;;;;1.15;0.98;;;3.90;99.90;;;;;;5004757;28;20050;-80
2023/03/07 03:32:38;;;;;;;1.67;0.93;;;3.80;99.90;;;;;;4984932;28;20108;-80
2023/03/07 03:35:06;;;;;;;1.80;1.17;;;3.70;99.90;;;;;;5007415;28;20084;-81
2023/03/07 03:37:33;;;;;;;1.48;1.02;;;3.70;99.90;;;;;;5003781;28;20054;-79
2023/03/07 03:40:00;;;;;;;1.90;1.10;;;3.60;99.90;;;;;;5003664;28;20484;-80
2023/03/07 03:42:27;;;;;;;1.48;0.98;;;3.50;99.90;;;;;;4987297;28;20111;-80
2023/03/07 03:44:55;;;;;;;1.60;0.88;;;3.50;99.90;;;;;;4992875;28;20077;-80
2023/03/07 03:47:22;;;;;;;1.86;0.92;;;3.40;99.90;;;;;;4670076;28;10000626;-80
2023/03/07 03:49:49;;;;;;;0.82;0.80;;;3.40;99.90;;;;;;5001847;28;20505;-80
2023/03/07 03:52:16;;;;;;;2.47;1.15;;;3.30;99.90;;;;;;5006143;28;20037;-80
2023/03/07 03:54:42;;;;;;;1.85;0.95;;;3.30;99.90;;;;;;5013821;28;20042;-80
2023/03/07 03:57:11;;;;;;;0.85;0.60;;;3.30;99.90;;;;;;4987611;28;20054;-80
2023/03/07 03:59:38;;;;;;;1.13;0.90;;;3.30;99.90;;;;;;4956216;28;20797;-79
2023/03/07 04:02:05;;;;;;;0.68;0.68;;;3.40;99.90;;;;;;4990593;28;20041;-80
2023/03/07 04:04:31;;;;;;;0.75;0.75;;;3.40;99.90;;;;;;5010789;28;20164;-80
2023/03/07 04:06:58;;;;;;;1.20;1.00;;;3.40;99.90;;;;;;4987142;28;20479;-81
2023/03/07 04:09:25;;;;;;;1.65;0.90;;;3.30;99.90;;;;;;5006737;28;20045;-80
2023/03/07 04:11:52;;;;;;;0.88;0.73;;;3.30;99.90;;;;;;4990077;28;20120;-80
2023/03/07 04:14:19;;;;;;;1.20;1.10;;;3.30;99.90;;;;;;5018970;28;20553;-80
2023/03/07 04:16:46;;;;;;;1.63;1.38;;;3.30;99.90;;;;;;4996837;28;20085;-80
2023/03/07 04:19:13;;;;;;;1.23;1.08;;;3.30;99.90;;;;;;5009237;28;20052;-80
2023/03/07 04:21:40;;;;;;;0.95;0.90;;;3.40;99.90;;;;;;4994107;28;20049;-80
2023/03/07 04:24:07;;;;;;;1.02;0.80;;;3.40;99.90;;;;;;5016654;28;20409;-80
2023/03/07 04:26:34;;;;;;;1.10;1.00;;;3.40;99.90;;;;;;4991228;28;20054;-80
2023/03/07 04:29:01;;;;;;;1.50;1.30;;;3.40;99.90;;;;;;4994764;28;20093;-80
2023/03/07 04:31:28;;;;;;;2.42;1.27;;;3.30;99.90;;;;;;4993186;28;20560;-80
2023/03/07 04:33:55;;;;;;;1.60;1.48;;;3.30;99.90;;;;;;5011418;28;20825;-80
2023/03/07 04:36:22;;;;;;;2.05;1.70;;;3.30;99.90;;;;;;4991760;28;20049;-81
2023/03/07 04:38:49;;;;;;;2.13;1.40;;;3.20;99.90;;;;;;5009456;28;20051;-81
2023/03/07 04:41:17;;;;;;;1.98;1.58;;;3.20;99.90;;;;;;4990723;28;20046;-81
2023/03/07 04:43:44;;;;;;;1.52;1.30;;;3.10;99.90;;;;;;4979115;28;20048;-80
2023/03/07 04:46:12;;;;;;;1.42;1.33;;;3.00;99.90;;;;;;4976573;28;20053;-80
2023/03/07 04:48:39;;;;;;;1.95;1.48;;;2.90;99.90;;;;;;5008621;28;20072;-81
2023/03/07 04:51:06;;;;;;;1.95;1.20;;;3.00;99.90;;;;;;4974638;28;20124;-81
2023/03/07 04:53:33;;;;;;;1.40;1.13;;;2.90;99.90;;;;;;5015799;28;20091;-80
2023/03/07 04:56:01;;;;;;;1.00;0.90;;;2.90;99.90;;;;;;4998992;28;20129;-80
2023/03/07 04:58:28;;;;;;;1.63;1.30;;;2.90;99.90;;;;;;4994862;28;20107;-80
2023/03/07 05:00:55;;;;;;;1.58;1.10;;;2.80;99.90;;;;;;5010714;28;20046;-82
2023/03/07 05:03:23;;;;;;;1.77;1.27;;;2.90;99.90;;;;;;5014198;28;20132;-80
2023/03/07 05:05:49;;;;;;;1.35;1.15;;;2.80;99.90;;;;;;4996604;28;20053;-81
2023/03/07 05:08:16;;;;;;;0.98;0.85;;;2.80;99.90;;;;;;4982133;28;20056;-80
2023/03/07 05:10:44;;;;;;;0.98;0.88;;;2.70;99.90;;;;;;5010864;28;20053;-80
2023/03/07 05:13:11;;;;;;;1.20;0.93;;;2.80;99.90;;;;;;5012876;28;20148;-80
2023/03/07 05:15:37;;;;;;;1.05;0.95;;;2.70;99.90;;;;;;4979050;28;20077;-81
2023/03/07 05:18:05;;;;;;;0.70;0.60;;;2.80;99.90;;;;;;4974638;28;20053;-80
2023/03/07 05:20:32;;;;;;;0.70;0.70;;;2.80;99.90;;;;;;4994434;28;20626;-81
2023/03/07 05:22:59;;;;;;;1.10;1.00;;;2.80;99.90;;;;;;4992995;28;20491;-80
2023/03/07 05:25:27;;;;;;;0.80;0.80;;;2.70;99.90;;;;;;5023568;28;20061;-79
2023/03/07 05:27:54;;;;;;;1.23;1.10;;;2.70;99.90;;;;;;5020616;28;20525;-80
2023/03/07 05:30:21;;;;;;;1.20;1.10;;;2.70;99.90;;;;;;4992768;28;20057;-81
2023/03/07 05:32:48;;;;;;;1.63;1.30;;;2.60;99.90;;;;;;4992228;28;20144;-81
2023/03/07 05:35:15;;;;;;;1.20;1.10;;;2.60;99.90;;;;;;5004064;28;20053;-81
2023/03/07 05:37:42;;;;;;;1.50;1.10;;;2.60;99.90;;;;;;5009404;28;20075;-82
2023/03/07 05:40:09;;;;;;;0.93;0.88;;;2.60;99.90;;;;;;4989714;28;20117;-81
2023/03/07 05:42:36;;;;;;;1.42;1.30;;;2.60;99.90;;;;;;4993579;28;20049;-81
2023/03/07 05:45:04;;;;;;;1.17;1.08;;;2.70;99.90;;;;;;4994736;28;20809;-81
2023/03/07 05:47:32;;;;;;;1.48;1.30;;;2.70;99.90;;;;;;4993507;28;20049;-82
2023/03/07 05:49:59;;;;;;;0.88;0.88;;;2.80;99.90;;;;;;5002274;28;20136;-82
2023/03/07 05:52:26;;;;;;;1.15;1.02;;;2.80;99.90;;;;;;4970994;28;20485;-82
2023/03/07 05:54:53;;;;;;;1.52;1.13;;;2.80;99.90;;;;;;5002144;28;20055;-82
2023/03/07 05:57:21;;;;;;;0.90;0.80;;;2.90;99.90;;;;;;4993803;28;20060;-82
2023/03/07 05:59:48;;;;;;;1.20;0.93;;;2.80;99.90;;;;;;4994853;28;20077;-81
2023/03/07 06:02:15;;;;;;;1.30;1.20;;;2.80;99.90;;;;;;5003031;28;20052;-82
2023/03/07 06:04:43;;;;;;;1.08;0.90;;;2.80;99.90;;;;;;4983012;28;20470;-81
2023/03/07 06:07:10;;;;;;;1.00;0.90;;;2.70;99.90;;;;;;4985648;28;20132;-81
2023/03/07 06:09:38;;;;;;;1.13;1.02;;;2.70;99.90;;;;;;5004367;28;20115;-82
2023/03/07 06:12:05;;;;;;;1.08;0.90;;;2.80;99.90;;;;;;4656069;28;9999907;-81
2023/03/07 06:14:32;;;;;;;1.13;1.02;;;2.80;99.90;;;;;;4296918;28;10000177;-82
2023/03/07 06:17:00;;;;;;;1.10;1.00;;;2.80;99.90;;;;;;5004335;28;20053;-83
2023/03/07 06:19:27;;;;;;;2.20;1.27;;;2.80;99.90;;;;;;5001313;28;20053;-82
2023/03/07 06:21:54;;;;;;;1.35;1.10;;;2.80;99.90;;;;;;4984801;28;20115;-82
2023/03/07 06:24:20;;;;;;;1.50;1.08;;;2.80;99.90;;;;;;4982318;28;20045;-82
2023/03/07 06:26:47;;;;;;;0.95;0.90;;;2.80;99.90;;;;;;5010619;28;20688;-84
2023/03/07 06:29:15;;;;;;;1.75;1.20;;;2.80;99.90;;;;;;4987563;28;20060;-83
2023/03/07 06:31:42;;;;;;;1.20;1.08;;;2.80;99.90;;;;;;5004960;28;20277;-84
2023/03/07 06:34:10;;;;;;;1.30;1.00;;;2.80;99.90;;;;;;4986908;28;20049;-83
2023/03/07 06:36:38;;;;;;;1.23;1.13;;;2.80;99.90;;;;;;5009042;28;20052;-84
2023/03/07 06:39:05;;;;;;;1.10;1.00;;;2.80;99.90;;;;;;4987334;28;20132;-83
2023/03/07 06:41:32;;;;;;;1.27;1.08;;;2.80;99.90;;;;;;5007447;28;20512;-84
2023/03/07 06:43:59;;;;;;;1.30;1.20;;;2.90;99.90;;;;;;5006066;28;20108;-86
2023/03/07 06:46:26;;;;;;;1.92;1.33;;;2.90;99.90;;;;;;4996648;28;20056;-87
2023/03/07 06:48:54;;;;;;;1.25;1.05;;;2.80;99.90;;;;;;5003536;28;20050;-84
2023/03/07 06:51:21;;;;;;;0.90;0.80;;;2.90;99.90;;;;;;4996674;28;20481;-87
2023/03/07 06:53:48;;;;;;;1.35;1.02;;;2.90;99.90;;;;;;5018520;28;20084;-86
2023/03/07 06:56:15;;;;;;;1.67;1.40;;;2.90;99.90;;;;;;4981573;28;20123;-87
2023/03/07 06:58:43;;;;;;;1.63;1.50;;;2.90;99.90;;;;;;4967840;28;20061;-87
2023/03/07 07:01:18;;;;;;;2.10;1.70;;;2.90;99.90;;;;;;4984272;28;20061;-88
2023/03/07 07:03:47;;;;;;;2.35;1.83;;;2.90;99.90;;;;;;4985647;28;20049;-87
2023/03/07 07:06:14;;;;;;;2.35;1.63;;;2.90;99.90;;;;;;4988627;28;20516;-88
2023/03/07 07:08:41;;;;;;;2.85;2.28;;;2.90;99.90;;;;;;4987387;28;20208;-87
2023/03/07 07:11:08;;;;;;;2.55;2.20;;;2.90;99.90;;;;;;4982487;28;20331;-88
2023/03/07 07:13:35;;;;;;;3.20;2.55;;;3.00;99.90;;;;;;4993083;28;20579;-89
2023/03/07 07:16:06;;;;;;;3.83;2.33;;;3.00;99.90;;;;;;4970135;28;20087;-80
2023/03/07 07:18:33;;;;;;;2.83;2.40;;;3.00;99.90;;;;;;4978613;28;20058;-84
2023/03/07 07:21:00;;;;;;;2.38;2.17;;;3.00;99.90;;;;;;4979961;28;20149;-84
2023/03/07 07:23:28;;;;;;;2.13;1.92;;;3.00;99.90;;;;;;5019604;28;20060;-84
2023/03/07 07:25:55;;;;;;;2.13;1.92;;;3.10;99.90;;;;;;4995673;28;20069;-84
2023/03/07 07:28:22;;;;;;;2.47;2.10;;;3.00;99.90;;;;;;4973526;28;20061;-84
2023/03/07 07:30:49;;;;;;;2.38;2.17;;;3.00;99.90;;;;;;4999392;28;20342;-85
2023/03/07 07:33:16;;;;;;;4.32;2.97;;;3.10;99.90;;;;;;4980650;28;20051;-86
2023/03/07 07:35:43;;;;;;;3.40;2.70;;;3.10;99.90;;;;;;4999475;28;20049;-77
2023/03/07 07:38:10;;;;;;;3.78;3.38;;;3.10;99.90;;;;;;5003749;28;20057;-87
2023/03/07 07:40:38;;;;;;;3.67;3.25;;;3.20;99.90;;;;;;4999382;28;20042;-90
2023/03/07 07:43:04;;;;;;;3.92;3.28;;;3.20;99.90;;;;;;4996989;28;20053;-89
2023/03/07 07:45:31;;;;;;;4.90;3.88;;;3.20;99.90;;;;;;5004863;28;20069;-90
2023/03/07 07:47:59;;;;;;;4.72;4.22;;;3.20;99.90;;;;;;4988114;28;20498;-91
2023/03/07 07:50:27;;;;;;;4.28;3.75;;;3.20;99.90;;;;;;4989902;28;20109;-90
2023/03/07 07:52:55;;;;;;;3.95;3.38;;;3.30;99.90;;;;;;4994211;28;20132;-90
2023/03/07 07:55:23;;;;;;;4.45;3.78;;;3.30;99.90;;;;;;5028098;28;20053;-91
2023/03/07 07:57:51;;;;;;;3.85;3.20;;;3.40;99.90;;;;;;4995914;28;20111;-91
2023/03/07 08:00:20;;;;;;;4.57;4.18;;;3.40;99.90;;;;;;4995231;28;20053;-91
2023/03/07 08:02:50;;;;;;;3.83;3.40;;;3.40;99.90;;;;;;4993157;28;20398;-91
2023/03/07 08:05:18;;;;;;;3.83;3.42;;;3.50;99.90;;;;;;4974601;28;20055;-91
2023/03/07 08:07:45;;;;;;;4.47;3.50;;;3.50;99.90;;;;;;4975666;28;20137;-91
2023/03/07 08:10:15;;;;;;;4.03;3.35;;;3.60;99.90;;;;;;5023702;28;20053;-91
2023/03/07 08:12:51;;;;;;;4.40;3.83;;;3.60;99.90;;;;;;4993042;28;20430;-91
2023/03/07 08:15:20;;;;;;;3.55;3.25;;;3.70;99.90;;;;;;5010041;28;20575;-92
2023/03/07 08:17:49;;;;;;;3.20;2.90;;;3.70;99.90;;;;;;4995481;28;20148;-92
2023/03/07 08:20:16;;;;;;;4.18;3.63;;;3.70;99.90;;;;;;4994631;28;20077;-91
2023/03/07 08:22:43;;;;;;;4.10;3.50;;;3.80;99.90;;;;;;4992864;28;20053;-91
2023/03/07 08:25:16;;;;;;;5.05;3.63;;;3.80;99.90;;;;;;4995544;28;20114;-90
2023/03/07 08:27:43;;;;;;;3.75;2.78;;;3.70;99.90;;;;;;5002732;28;20063;-91
2023/03/07 08:30:11;;;;;;;3.53;2.78;;;3.80;99.90;;;;;;5006044;28;20049;-91
2023/03/07 08:32:38;;;;;;;3.35;2.92;;;3.70;99.90;;;;;;4983090;28;20060;-90
2023/03/07 08:35:06;;;;;;;3.03;2.72;;;3.80;99.90;;;;;;5007709;28;20409;-90
2023/03/07 08:37:34;;;;;;;3.50;2.80;;;3.80;99.90;;;;;;4986649;28;20390;-90
2023/03/07 08:40:01;;;;;;;3.33;2.78;;;3.90;99.90;;;;;;4974134;28;20053;-89
2023/03/07 08:42:28;;;;;;;3.65;3.08;;;4.00;99.90;;;;;;4992196;28;20347;-91
2023/03/07 08:44:57;;;;;;;3.00;2.50;;;4.00;99.90;;;;;;5011234;28;20084;-90
2023/03/07 08:47:24;;;;;;;3.40;2.58;;;4.10;99.90;;;;;;4981309;28;20057;-91
2023/03/07 08:49:51;;;;;;;3.08;2.78;;;4.10;99.90;;;;;;4975200;28;20148;-91
2023/03/07 08:52:18;;;;;;;2.75;2.40;;;4.10;99.90;;;;;;4997329;28;20045;-90
2023/03/07 08:54:46;;;;;;;2.25;2.05;;;4.10;99.90;;;;;;4980821;28;20147;-90
2023/03/07 08:57:13;;;;;;;2.78;2.25;;;4.10;99.90;;;;;;5014606;28;20060;-91
2023/03/07 08:59:40;;;;;;;2.45;2.05;;;4.20;99.90;;;;;;4989964;28;20053;-91
2023/03/07 09:02:09;;;;;;;2.60;2.00;;;4.30;99.90;;;;;;4998334;28;20515;-91
2023/03/07 09:04:37;;;;;;;2.55;2.35;;;4.30;99.90;;;;;;4996150;28;20294;-90
2023/03/07 09:07:04;;;;;;;1.92;1.67;;;4.30;99.90;;;;;;5015444;28;20087;-91
2023/03/07 09:09:31;;;;;;;1.90;1.50;;;4.30;99.90;;;;;;5014452;28;20407;-91
2023/03/07 09:11:58;;;;;;;2.30;1.52;;;4.40;99.90;;;;;;4997607;28;20164;-92
2023/03/07 09:14:26;;;;;;;2.92;1.77;;;4.50;99.90;;;;;;4994227;28;20150;-90
2023/03/07 09:16:53;;;;;;;1.75;1.63;;;4.50;99.90;;;;;;4994956;28;20049;-90
2023/03/07 09:19:20;;;;;;;2.38;2.08;;;4.40;99.90;;;;;;5000536;28;20140;-91
2023/03/07 09:21:47;;;;;;;2.10;1.75;;;4.50;99.90;;;;;;5014513;28;20045;-90
2023/03/07 09:24:14;;;;;;;2.08;1.58;;;4.50;99.90;;;;;;4994745;28;20045;-91
2023/03/07 09:26:41;;;;;;;2.55;1.85;;;4.60;99.90;;;;;;5026517;28;20167;-90
2023/03/07 09:29:08;;;;;;;2.30;1.70;;;4.70;99.90;;;;;;5000263;28;20060;-91
2023/03/07 09:31:35;;;;;;;2.00;1.63;;;4.80;99.90;;;;;;5014431;28;20076;-91
2023/03/07 09:34:04;;;;;;;1.95;1.70;;;5.00;99.90;;;;;;5013559;28;20076;-90
2023/03/07 09:36:31;;;;;;;2.22;1.88;;;5.00;99.90;;;;;;4979237;28;20061;-90
2023/03/07 09:38:58;;;;;;;2.08;1.63;;;5.10;99.90;;;;;;4982531;28;20198;-91
2023/03/07 09:41:31;;;;;;;3.65;2.90;;;5.20;99.90;;;;;;5015107;28;20053;-91
2023/03/07 09:44:04;;;;;;;4.43;2.93;;;5.10;99.90;;;;;;5013780;28;20085;-90
2023/03/07 09:46:36;;;;;;;3.00;2.60;;;5.10;99.90;;;;;;5028456;28;20167;-91
2023/03/07 09:49:19;;;;;;;3.05;2.63;;;5.10;99.90;;;;;;5008855;28;20087;-89
2023/03/07 09:51:49;;;;;;;2.95;2.53;;;5.10;99.90;;;;;;4993244;28;20069;-90
2023/03/07 09:54:46;;;;;;;3.55;2.70;;;5.00;99.90;;;;;;4995776;28;20139;-90
2023/03/07 09:57:18;;;;;;;2.47;2.05;;;5.10;99.90;;;;;;4987249;28;20110;-91
2023/03/07 09:59:49;;;;;;;3.38;2.53;;;5.10;99.90;;;;;;4996681;28;20064;-88
2023/03/07 10:02:33;;;;;;;4.53;2.95;;;5.10;99.90;;;;;;5012820;28;20454;-90
2023/03/07 10:05:17;;;;;;;4.18;2.83;;;5.10;99.90;;;;;;4976668;28;20054;-82
2023/03/07 10:07:44;;;;;;;4.53;3.88;;;5.20;99.90;;;;;;5002661;28;20056;-82
2023/03/07 10:10:21;;;;;;;3.95;3.20;;;5.20;99.90;;;;;;4992658;28;20502;-82
2023/03/07 10:12:55;;;;;;;4.30;3.45;;;5.20;99.90;;;;;;4993332;28;20049;-82
2023/03/07 10:15:44;;;;;;;4.13;3.42;;;5.30;99.90;;;;;;5024515;28;20053;-82
2023/03/07 10:18:28;;;;;;;4.35;3.83;;;5.40;99.90;;;;;;4990125;28;20151;-82
2023/03/07 10:21:04;;;;;;;4.80;4.00;;;5.40;99.90;;;;;;5023360;28;20049;-82
2023/03/07 10:24:02;;;;;;;3.70;3.25;;;5.40;99.90;;;;;;5041791;28;20064;-82
2023/03/07 10:26:41;;;;;;;4.65;3.10;;;5.50;99.90;;;;;;5023036;28;20084;-82
2023/03/07 10:29:16;;;;;;;3.92;3.30;;;5.60;99.90;;;;;;5006449;28;20179;-82
2023/03/07 10:31:47;;;;;;;3.22;2.60;;;5.70;99.90;;;;;;4973612;28;20151;-82
2023/03/07 10:34:24;;;;;;;4.60;3.13;;;5.80;99.90;;;;;;4990475;28;20052;-82
2023/03/07 10:37:18;;;;;;;4.65;3.67;;;5.80;99.90;;;;;;5009891;28;20130;-82
2023/03/07 10:39:53;;;;;;;3.80;3.30;;;5.70;99.90;;;;;;5008577;28;20076;-82
2023/03/07 10:42:24;;;;;;;4.15;3.63;;;5.60;99.90;;;;;;4989615;28;20059;-82
2023/03/07 10:44:51;;;;;;;4.95;3.40;;;5.60;99.90;;;;;;5006791;28;20997;-82
2023/03/07 10:47:19;;;;;;;4.05;3.10;;;5.80;99.90;;;;;;5025894;28;20080;-82
2023/03/07 10:49:47;;;;;;;3.58;2.35;;;6.00;99.90;;;;;;5008383;28;20102;-82
2023/03/07 10:52:16;;;;;;;3.00;2.35;;;6.10;99.90;;;;;;4992701;28;20137;-82
2023/03/07 10:54:44;;;;;;;2.97;2.58;;;6.10;99.90;;;;;;5027391;28;20518;-80
2023/03/07 10:57:13;;;;;;;3.45;2.50;;;6.20;99.90;;;;;;5000166;28;20164;-81
2023/03/07 10:59:46;;;;;;;3.15;2.35;;;6.20;99.90;;;;;;4972602;28;20225;-81
2023/03/07 11:02:35;;;;;;;4.53;2.70;;;6.20;99.90;;;;;;4990977;28;20368;-81
2023/03/07 11:05:03;;;;;;;3.83;2.25;;;6.20;99.90;;;;;;4991976;28;20457;-81
2023/03/07 11:07:31;;;;;;;4.85;3.00;;;6.20;99.90;;;;;;4983568;28;20079;-81
2023/03/07 11:09:59;;;;;;;3.70;2.83;;;6.10;99.90;;;;;;4999064;28;20524;-81
2023/03/07 11:12:28;;;;;;;4.10;2.88;;;6.10;99.90;;;;;;4980378;28;20053;-81
2023/03/07 11:14:58;;;;;;;2.97;2.67;;;6.20;99.90;;;;;;4983542;28;20061;-80
2023/03/07 11:17:42;;;;;;;3.20;2.00;;;6.30;99.90;;;;;;4968110;28;20057;-80
2023/03/07 11:20:28;;;;;;;2.47;2.13;;;6.40;99.90;;;;;;4997054;28;20053;-80
2023/03/07 11:23:15;;;;;;;3.63;2.30;;;6.40;99.90;;;;;;4999819;28;20049;-80
2023/03/07 11:25:42;;;;;;;2.80;2.25;;;6.50;99.90;;;;;;5002141;28;20050;-80
2023/03/07 11:28:29;;;;;;;4.07;2.50;;;6.50;99.90;;;;;;4985704;28;20170;-80
2023/03/07 11:31:20;;;;;;;2.15;1.92;;;6.30;99.90;;;;;;4985549;28;20057;-80
2023/03/07 11:33:55;;;;;;;3.22;2.10;;;6.30;99.90;;;;;;5032105;28;20492;-81
2023/03/07 11:36:34;;;;;;;2.20;1.92;;;6.30;99.90;;;;;;5024704;28;20053;-79
2023/03/07 11:39:07;;;;;;;2.85;1.75;;;6.30;99.90;;;;;;5024051;28;20484;-80
2023/03/07 11:41:35;;;;;;;2.42;1.70;;;6.20;99.90;;;;;;5042734;28;20573;-80
2023/03/07 11:44:20;;;;;;;2.50;1.85;;;6.10;99.90;;;;;;4992196;28;20045;-80
2023/03/07 11:46:56;;;;;;;2.70;1.98;;;6.00;99.90;;;;;;5041144;28;20597;-80
2023/03/07 11:49:48;;;;;;;2.72;2.15;;;5.90;99.90;;;;;;5019639;28;20162;-80
2023/03/07 11:53:02;;;;;;;3.38;2.20;;;5.80;99.90;;;;;;5022142;28;20120;-80
2023/03/07 11:55:29;;;;;;;;;;;5.70;99.90;;;;;;4941992;29;20070;-81
2023/03/07 11:58:05;;;;;;;4.05;2.08;;;5.60;99.90;;;;;;5008202;28;20010;-81
2023/03/07 12:01:05;;;;;;;2.45;1.85;;;5.50;99.90;;;;;;5042551;28;20152;-81
2023/03/07 12:03:35;;;;;;;4.93;2.28;;;5.40;99.90;;;;;;5041226;28;20103;-80
2023/03/07 12:06:17;;;;;;;3.30;2.50;;;5.30;99.90;;;;;;5041759;28;20049;-81
2023/03/07 12:09:01;;;;;;;4.50;2.03;;;5.20;99.90;;;;;;4989709;28;20453;-81
2023/03/07 12:11:49;;;;;;;4.60;2.40;;;5.10;99.90;;;;;;4989623;28;20056;-81
2023/03/07 12:14:25;;;;;;;3.20;2.42;;;5.10;99.90;;;;;;5041642;28;20049;-81
2023/03/07 12:17:09;;;;;;;2.55;1.98;;;5.10;99.90;;;;;;5042098;28;20064;-79
2023/03/07 12:19:58;;;;;;;2.58;2.22;;;5.20;99.90;;;;;;5008207;28;20139;-80
2023/03/07 12:22:36;;;;;;;2.00;1.73;;;5.40;99.90;;;;;;5010585;28;20048;-80
2023/03/07 12:25:11;;;;;;;3.50;2.60;;;5.60;99.90;;;;;;5022933;28;20080;-80
2023/03/07 12:27:42;;;;;;;2.88;2.10;;;5.60;99.90;;;;;;5021514;28;20076;-80
2023/03/07 12:30:13;;;;;;;3.10;2.17;;;5.70;99.90;;;;;;4988828;28;20049;-80
2023/03/07 12:32:41;;;;;;;3.53;2.42;;;5.80;99.90;;;;;;5024134;28;20512;-81
2023/03/07 12:35:31;;;;;;;3.33;2.22;;;5.80;99.90;;;;;;5006517;28;20067;-81
2023/03/07 12:38:25;;;;;;;3.28;2.53;;;5.90;99.90;;;;;;5007842;28;20056;-80
2023/03/07 12:41:12;;;;;;;2.60;2.28;;;5.90;99.90;;;;;;4999111;28;20475;-80
2023/03/07 12:43:43;;;;;;;2.83;2.00;;;5.80;99.90;;;;;;5025354;28;20061;-80
2023/03/07 12:46:32;;;;;;;2.70;2.50;;;5.70;99.90;;;;;;4993437;28;20098;-80
2023/03/07 12:49:26;;;;;;;2.70;1.77;;;5.60;99.90;;;;;;5017880;28;20464;-80
2023/03/07 12:51:58;;;;;;;2.33;1.80;;;5.50;99.90;;;;;;5011143;28;20144;-80
2023/03/07 12:54:28;;;;;;;3.90;1.98;;;5.50;99.90;;;;;;4991096;28;20081;-81
2023/03/07 12:57:02;;;;;;;2.20;1.73;;;5.40;99.90;;;;;;5026025;28;20652;-80
2023/03/07 12:59:30;;;;;;;2.88;1.70;;;5.40;99.90;;;;;;5007455;28;20586;-81
2023/03/07 13:02:00;;;;;;;2.47;1.90;;;5.50;99.90;;;;;;4992050;28;20053;-81
2023/03/07 13:04:27;;;;;;;1.52;1.38;;;5.60;99.90;;;;;;5008317;28;20071;-80
2023/03/07 13:06:55;;;;;;;1.70;1.30;;;5.70;99.90;;;;;;5045336;28;20412;-81
2023/03/07 13:09:23;;;;;;;2.83;1.75;;;5.70;99.90;;;;;;4994980;28;20102;-80
2023/03/07 13:12:08;;;;;;;2.42;1.73;;;5.70;99.90;;;;;;4995549;28;20056;-81
2023/03/07 13:14:42;;;;;;;1.23;1.13;;;5.70;99.90;;;;;;4993974;28;20059;-80